sensor_id;sensor_type;location;lat;lon;timestamp;P1;durP1;ratioP1;P2;durP2;ratioP2
65033;SDS011;51601;51.356;12.458;2023-02-01T00:01:06;9.80;;;3.13;;
65033;SDS011;51601;51.356;12.458;2023-02-01T00:05:31;6.30;;;2.00;;
65033;SDS011;51601;51.356;12.458;2023-02-01T00:09:56;8.40;;;2.92;;
65033;SDS011;51601;51.356;12.458;2023-02-01T00:14:20;8.02;;;2.67;;
65033;SDS011;51601;51.356;12.458;2023-02-01T00:18:44;7.70;;;2.40;;
65033;SDS011;51601;51.356;12.458;2023-02-01T00:23:09;3.70;;;1.75;;
65033;SDS011;51601;51.356;12.458;2023-02-01T00:27:35;9.25;;;2.78;;
65033;SDS011;51601;51.356;12.458;2023-02-01T00:31:59;5.30;;;2.07;;
65033;SDS011;51601;51.356;12.458;2023-02-01T00:36:23;3.47;;;1.45;;
65033;SDS011;51601;51.356;12.458;2023-02-01T00:40:46;5.80;;;2.08;;
65033;SDS011;51601;51.356;12.458;2023-02-01T00:45:12;5.65;;;2.28;;
65033;SDS011;51601;51.356;12.458;2023-02-01T00:49:36;3.37;;;1.43;;
65033;SDS011;51601;51.356;12.458;2023-02-01T00:54:00;7.03;;;1.90;;
65033;SDS011;51601;51.356;12.458;2023-02-01T00:58:25;7.43;;;2.28;;
65033;SDS011;51601;51.356;12.458;2023-02-01T01:02:51;6.60;;;2.10;;
65033;SDS011;51601;51.356;12.458;2023-02-01T01:07:15;7.15;;;1.17;;
65033;SDS011;51601;51.356;12.458;2023-02-01T01:11:40;5.38;;;1.67;;
65033;SDS011;51601;51.356;12.458;2023-02-01T01:16:05;8.40;;;1.70;;
65033;SDS011;51601;51.356;12.458;2023-02-01T01:20:49;5.82;;;2.00;;
65033;SDS011;51601;51.356;12.458;2023-02-01T01:25:36;6.75;;;1.70;;
65033;SDS011;51601;51.356;12.458;2023-02-01T01:30:21;6.03;;;2.00;;
65033;SDS011;51601;51.356;12.458;2023-02-01T01:35:06;11.43;;;2.60;;
65033;SDS011;51601;51.356;12.458;2023-02-01T01:39:52;8.60;;;2.10;;
65033;SDS011;51601;51.356;12.458;2023-02-01T01:44:57;9.30;;;2.25;;
65033;SDS011;51601;51.356;12.458;2023-02-01T01:49:44;7.70;;;2.20;;
65033;SDS011;51601;51.356;12.458;2023-02-01T01:54:29;4.07;;;1.23;;
65033;SDS011;51601;51.356;12.458;2023-02-01T01:59:18;8.00;;;1.90;;
65033;SDS011;51601;51.356;12.458;2023-02-01T02:04:04;7.00;;;2.50;;
65033;SDS011;51601;51.356;12.458;2023-02-01T02:08:48;11.75;;;3.00;;
65033;SDS011;51601;51.356;12.458;2023-02-01T02:13:34;8.23;;;2.47;;
65033;SDS011;51601;51.356;12.458;2023-02-01T02:18:23;11.75;;;3.40;;
65033;SDS011;51601;51.356;12.458;2023-02-01T02:28:48;8.90;;;1.90;;
65033;SDS011;51601;51.356;12.458;2023-02-01T02:34:00;8.70;;;2.22;;
65033;SDS011;51601;51.356;12.458;2023-02-01T02:38:53;4.13;;;1.47;;
65033;SDS011;51601;51.356;12.458;2023-02-01T02:43:47;11.30;;;1.88;;
65033;SDS011;51601;51.356;12.458;2023-02-01T02:49:00;9.43;;;1.90;;
65033;SDS011;51601;51.356;12.458;2023-02-01T02:53:52;19.40;;;2.13;;
65033;SDS011;51601;51.356;12.458;2023-02-01T02:59:00;6.20;;;1.65;;
65033;SDS011;51601;51.356;12.458;2023-02-01T03:04:05;9.38;;;2.58;;
65033;SDS011;51601;51.356;12.458;2023-02-01T03:08:55;5.10;;;1.90;;
65033;SDS011;51601;51.356;12.458;2023-02-01T03:13:43;12.57;;;2.00;;
65033;SDS011;51601;51.356;12.458;2023-02-01T03:18:35;6.03;;;1.88;;
65033;SDS011;51601;51.356;12.458;2023-02-01T03:23:23;5.22;;;1.80;;
65033;SDS011;51601;51.356;12.458;2023-02-01T03:28:13;3.77;;;1.50;;
65033;SDS011;51601;51.356;12.458;2023-02-01T03:33:03;6.90;;;2.22;;
65033;SDS011;51601;51.356;12.458;2023-02-01T03:38:00;7.97;;;2.20;;
65033;SDS011;51601;51.356;12.458;2023-02-01T03:42:54;6.13;;;2.00;;
65033;SDS011;51601;51.356;12.458;2023-02-01T03:47:42;10.52;;;1.58;;
65033;SDS011;51601;51.356;12.458;2023-02-01T03:52:30;14.60;;;2.00;;
65033;SDS011;51601;51.356;12.458;2023-02-01T03:57:20;8.68;;;2.60;;
65033;SDS011;51601;51.356;12.458;2023-02-01T04:02:10;6.87;;;1.93;;
65033;SDS011;51601;51.356;12.458;2023-02-01T04:06:55;7.63;;;2.35;;
65033;SDS011;51601;51.356;12.458;2023-02-01T04:11:39;5.15;;;1.55;;
65033;SDS011;51601;51.356;12.458;2023-02-01T04:16:23;7.13;;;1.90;;
65033;SDS011;51601;51.356;12.458;2023-02-01T04:21:09;10.05;;;1.70;;
65033;SDS011;51601;51.356;12.458;2023-02-01T04:25:53;3.95;;;1.50;;
65033;SDS011;51601;51.356;12.458;2023-02-01T04:30:39;6.03;;;1.90;;
65033;SDS011;51601;51.356;12.458;2023-02-01T04:35:23;6.07;;;1.83;;
65033;SDS011;51601;51.356;12.458;2023-02-01T04:40:10;9.68;;;2.08;;
65033;SDS011;51601;51.356;12.458;2023-02-01T04:44:55;8.10;;;1.88;;
65033;SDS011;51601;51.356;12.458;2023-02-01T04:49:39;7.53;;;1.50;;
65033;SDS011;51601;51.356;12.458;2023-02-01T04:54:23;7.70;;;1.90;;
65033;SDS011;51601;51.356;12.458;2023-02-01T04:59:10;7.50;;;1.77;;
65033;SDS011;51601;51.356;12.458;2023-02-01T05:03:54;7.47;;;1.87;;
65033;SDS011;51601;51.356;12.458;2023-02-01T05:08:41;9.68;;;1.70;;
65033;SDS011;51601;51.356;12.458;2023-02-01T05:13:25;6.72;;;1.48;;
65033;SDS011;51601;51.356;12.458;2023-02-01T05:18:31;3.47;;;1.10;;
65033;SDS011;51601;51.356;12.458;2023-02-01T05:23:15;9.35;;;2.00;;
65033;SDS011;51601;51.356;12.458;2023-02-01T05:27:59;4.40;;;1.52;;
65033;SDS011;51601;51.356;12.458;2023-02-01T05:32:43;4.80;;;1.75;;
65033;SDS011;51601;51.356;12.458;2023-02-01T05:37:29;7.03;;;2.00;;
65033;SDS011;51601;51.356;12.458;2023-02-01T05:42:13;7.07;;;2.03;;
65033;SDS011;51601;51.356;12.458;2023-02-01T05:46:57;4.63;;;1.98;;
65033;SDS011;51601;51.356;12.458;2023-02-01T05:51:41;5.07;;;1.80;;
65033;SDS011;51601;51.356;12.458;2023-02-01T05:56:27;11.43;;;2.08;;
65033;SDS011;51601;51.356;12.458;2023-02-01T06:01:11;14.35;;;2.67;;
65033;SDS011;51601;51.356;12.458;2023-02-01T06:05:55;4.47;;;1.73;;
65033;SDS011;51601;51.356;12.458;2023-02-01T06:10:39;5.47;;;2.00;;
65033;SDS011;51601;51.356;12.458;2023-02-01T06:15:25;5.90;;;1.73;;
65033;SDS011;51601;51.356;12.458;2023-02-01T06:20:10;8.80;;;1.88;;
65033;SDS011;51601;51.356;12.458;2023-02-01T06:24:54;7.60;;;2.20;;
65033;SDS011;51601;51.356;12.458;2023-02-01T06:29:40;3.00;;;1.45;;
65033;SDS011;51601;51.356;12.458;2023-02-01T06:34:27;8.57;;;2.20;;
65033;SDS011;51601;51.356;12.458;2023-02-01T06:39:11;12.47;;;3.13;;
65033;SDS011;51601;51.356;12.458;2023-02-01T06:43:58;8.60;;;1.98;;
65033;SDS011;51601;51.356;12.458;2023-02-01T06:48:42;8.55;;;1.85;;
65033;SDS011;51601;51.356;12.458;2023-02-01T06:53:29;5.13;;;2.27;;
65033;SDS011;51601;51.356;12.458;2023-02-01T06:58:14;6.80;;;2.25;;
65033;SDS011;51601;51.356;12.458;2023-02-01T07:02:58;8.13;;;1.90;;
65033;SDS011;51601;51.356;12.458;2023-02-01T07:07:43;9.95;;;1.80;;
65033;SDS011;51601;51.356;12.458;2023-02-01T07:12:28;12.67;;;2.50;;
65033;SDS011;51601;51.356;12.458;2023-02-01T07:17:13;7.15;;;1.75;;
65033;SDS011;51601;51.356;12.458;2023-02-01T07:21:57;5.63;;;2.05;;
65033;SDS011;51601;51.356;12.458;2023-02-01T07:26:41;10.37;;;2.50;;
65033;SDS011;51601;51.356;12.458;2023-02-01T07:31:27;4.43;;;1.40;;
65033;SDS011;51601;51.356;12.458;2023-02-01T07:36:10;7.95;;;2.40;;
65033;SDS011;51601;51.356;12.458;2023-02-01T07:40:56;5.87;;;2.07;;
65033;SDS011;51601;51.356;12.458;2023-02-01T07:45:41;4.80;;;1.95;;
65033;SDS011;51601;51.356;12.458;2023-02-01T07:50:27;11.27;;;3.28;;
65033;SDS011;51601;51.356;12.458;2023-02-01T07:55:11;11.00;;;3.03;;
65033;SDS011;51601;51.356;12.458;2023-02-01T07:59:55;13.00;;;2.47;;
65033;SDS011;51601;51.356;12.458;2023-02-01T08:04:57;7.07;;;2.40;;
65033;SDS011;51601;51.356;12.458;2023-02-01T08:09:43;8.23;;;2.40;;
65033;SDS011;51601;51.356;12.458;2023-02-01T08:14:27;8.07;;;2.27;;
65033;SDS011;51601;51.356;12.458;2023-02-01T08:19:11;6.97;;;1.95;;
65033;SDS011;51601;51.356;12.458;2023-02-01T08:23:55;7.22;;;1.95;;
65033;SDS011;51601;51.356;12.458;2023-02-01T08:28:41;7.30;;;2.50;;
65033;SDS011;51601;51.356;12.458;2023-02-01T08:33:26;8.35;;;2.50;;
65033;SDS011;51601;51.356;12.458;2023-02-01T08:38:11;4.93;;;1.60;;
65033;SDS011;51601;51.356;12.458;2023-02-01T08:42:55;8.38;;;2.55;;
65033;SDS011;51601;51.356;12.458;2023-02-01T08:47:40;6.30;;;2.10;;
65033;SDS011;51601;51.356;12.458;2023-02-01T08:52:25;7.45;;;2.15;;
65033;SDS011;51601;51.356;12.458;2023-02-01T08:57:09;7.97;;;2.65;;
65033;SDS011;51601;51.356;12.458;2023-02-01T09:01:53;3.17;;;1.30;;
65033;SDS011;51601;51.356;12.458;2023-02-01T09:06:41;7.55;;;2.35;;
65033;SDS011;51601;51.356;12.458;2023-02-01T09:11:25;7.13;;;1.85;;
65033;SDS011;51601;51.356;12.458;2023-02-01T09:16:10;9.30;;;1.83;;
65033;SDS011;51601;51.356;12.458;2023-02-01T09:20:55;4.78;;;1.88;;
65033;SDS011;51601;51.356;12.458;2023-02-01T09:25:40;11.68;;;2.70;;
65033;SDS011;51601;51.356;12.458;2023-02-01T09:30:25;8.23;;;2.50;;
65033;SDS011;51601;51.356;12.458;2023-02-01T09:35:12;5.83;;;2.23;;
65033;SDS011;51601;51.356;12.458;2023-02-01T09:39:56;9.25;;;2.78;;
65033;SDS011;51601;51.356;12.458;2023-02-01T09:44:46;14.82;;;3.47;;
65033;SDS011;51601;51.356;12.458;2023-02-01T09:49:48;5.60;;;2.37;;
65033;SDS011;51601;51.356;12.458;2023-02-01T09:54:39;5.00;;;1.95;;
65033;SDS011;51601;51.356;12.458;2023-02-01T09:59:29;5.78;;;2.03;;
65033;SDS011;51601;51.356;12.458;2023-02-01T10:04:20;9.50;;;2.40;;
65033;SDS011;51601;51.356;12.458;2023-02-01T10:09:20;6.07;;;2.40;;
65033;SDS011;51601;51.356;12.458;2023-02-01T10:14:29;5.47;;;2.05;;
65033;SDS011;51601;51.356;12.458;2023-02-01T10:19:30;6.35;;;2.40;;
65033;SDS011;51601;51.356;12.458;2023-02-01T10:29:40;15.40;;;3.10;;
65033;SDS011;51601;51.356;12.458;2023-02-01T10:34:32;6.70;;;2.30;;
65033;SDS011;51601;51.356;12.458;2023-02-01T10:39:18;8.63;;;2.33;;
65033;SDS011;51601;51.356;12.458;2023-02-01T10:44:03;5.53;;;1.50;;
65033;SDS011;51601;51.356;12.458;2023-02-01T10:48:49;11.43;;;2.38;;
65033;SDS011;51601;51.356;12.458;2023-02-01T10:53:38;8.10;;;1.83;;
65033;SDS011;51601;51.356;12.458;2023-02-01T10:58:27;6.43;;;1.45;;
65033;SDS011;51601;51.356;12.458;2023-02-01T11:03:31;8.07;;;1.73;;
65033;SDS011;51601;51.356;12.458;2023-02-01T11:08:33;6.63;;;2.00;;
65033;SDS011;51601;51.356;12.458;2023-02-01T11:13:29;6.87;;;1.80;;
65033;SDS011;51601;51.356;12.458;2023-02-01T11:18:18;11.70;;;1.90;;
65033;SDS011;51601;51.356;12.458;2023-02-01T11:23:12;5.18;;;1.58;;
65033;SDS011;51601;51.356;12.458;2023-02-01T11:27:59;5.63;;;1.70;;
65033;SDS011;51601;51.356;12.458;2023-02-01T11:32:44;10.75;;;2.00;;
65033;SDS011;51601;51.356;12.458;2023-02-01T11:37:33;8.60;;;1.88;;
65033;SDS011;51601;51.356;12.458;2023-02-01T11:42:20;6.03;;;2.10;;
65033;SDS011;51601;51.356;12.458;2023-02-01T11:47:22;7.70;;;2.22;;
65033;SDS011;51601;51.356;12.458;2023-02-01T11:52:10;7.10;;;2.58;;
65033;SDS011;51601;51.356;12.458;2023-02-01T11:57:09;9.65;;;1.98;;
65033;SDS011;51601;51.356;12.458;2023-02-01T12:02:27;5.27;;;1.57;;
65033;SDS011;51601;51.356;12.458;2023-02-01T12:07:47;8.30;;;1.98;;
65033;SDS011;51601;51.356;12.458;2023-02-01T12:12:40;6.82;;;2.17;;
65033;SDS011;51601;51.356;12.458;2023-02-01T12:17:41;8.97;;;1.83;;
65033;SDS011;51601;51.356;12.458;2023-02-01T12:22:37;8.88;;;2.42;;
65033;SDS011;51601;51.356;12.458;2023-02-01T12:27:40;8.07;;;2.35;;
65033;SDS011;51601;51.356;12.458;2023-02-01T12:32:46;6.63;;;1.80;;
65033;SDS011;51601;51.356;12.458;2023-02-01T12:37:45;5.95;;;2.15;;
65033;SDS011;51601;51.356;12.458;2023-02-01T12:42:38;5.88;;;1.75;;
65033;SDS011;51601;51.356;12.458;2023-02-01T12:47:27;6.57;;;2.10;;
65033;SDS011;51601;51.356;12.458;2023-02-01T12:52:18;5.53;;;2.03;;
65033;SDS011;51601;51.356;12.458;2023-02-01T12:57:08;4.00;;;1.50;;
65033;SDS011;51601;51.356;12.458;2023-02-01T13:01:56;5.38;;;1.58;;
65033;SDS011;51601;51.356;12.458;2023-02-01T13:06:45;6.17;;;1.83;;
65033;SDS011;51601;51.356;12.458;2023-02-01T13:11:34;6.45;;;1.63;;
65033;SDS011;51601;51.356;12.458;2023-02-01T13:16:23;4.43;;;1.50;;
65033;SDS011;51601;51.356;12.458;2023-02-01T13:21:12;3.70;;;1.23;;
65033;SDS011;51601;51.356;12.458;2023-02-01T13:26:01;5.70;;;1.75;;
65033;SDS011;51601;51.356;12.458;2023-02-01T13:30:51;4.70;;;1.40;;
65033;SDS011;51601;51.356;12.458;2023-02-01T13:36:01;6.00;;;1.90;;
65033;SDS011;51601;51.356;12.458;2023-02-01T13:41:02;4.27;;;2.00;;
65033;SDS011;51601;51.356;12.458;2023-02-01T13:46:05;8.27;;;1.85;;
65033;SDS011;51601;51.356;12.458;2023-02-01T13:50:56;2.70;;;1.20;;
65033;SDS011;51601;51.356;12.458;2023-02-01T13:55:43;6.53;;;1.70;;
65033;SDS011;51601;51.356;12.458;2023-02-01T14:00:30;7.35;;;1.90;;
65033;SDS011;51601;51.356;12.458;2023-02-01T14:10:49;6.37;;;1.83;;
65033;SDS011;51601;51.356;12.458;2023-02-01T14:15:38;8.23;;;1.95;;
65033;SDS011;51601;51.356;12.458;2023-02-01T14:25:38;6.35;;;2.50;;
65033;SDS011;51601;51.356;12.458;2023-02-01T14:30:24;6.27;;;2.53;;
65033;SDS011;51601;51.356;12.458;2023-02-01T14:35:21;6.13;;;1.63;;
65033;SDS011;51601;51.356;12.458;2023-02-01T14:40:15;6.43;;;2.22;;
65033;SDS011;51601;51.356;12.458;2023-02-01T14:50:30;6.18;;;2.35;;
65033;SDS011;51601;51.356;12.458;2023-02-01T14:55:21;14.55;;;1.60;;
65033;SDS011;51601;51.356;12.458;2023-02-01T15:00:21;5.97;;;1.93;;
65033;SDS011;51601;51.356;12.458;2023-02-01T15:05:19;7.75;;;2.30;;
65033;SDS011;51601;51.356;12.458;2023-02-01T15:10:13;5.93;;;2.33;;
65033;SDS011;51601;51.356;12.458;2023-02-01T15:15:09;9.30;;;2.10;;
65033;SDS011;51601;51.356;12.458;2023-02-01T15:19:56;5.03;;;1.63;;
65033;SDS011;51601;51.356;12.458;2023-02-01T15:24:41;5.45;;;1.50;;
65033;SDS011;51601;51.356;12.458;2023-02-01T15:29:26;7.95;;;1.90;;
65033;SDS011;51601;51.356;12.458;2023-02-01T15:34:15;5.87;;;2.10;;
65033;SDS011;51601;51.356;12.458;2023-02-01T15:39:13;9.63;;;2.17;;
65033;SDS011;51601;51.356;12.458;2023-02-01T15:44:04;8.20;;;2.17;;
65033;SDS011;51601;51.356;12.458;2023-02-01T15:48:56;6.67;;;2.67;;
65033;SDS011;51601;51.356;12.458;2023-02-01T15:53:43;5.10;;;1.90;;
65033;SDS011;51601;51.356;12.458;2023-02-01T15:58:29;8.55;;;2.10;;
65033;SDS011;51601;51.356;12.458;2023-02-01T16:03:24;7.43;;;1.85;;
65033;SDS011;51601;51.356;12.458;2023-02-01T16:08:20;2.47;;;0.93;;
65033;SDS011;51601;51.356;12.458;2023-02-01T16:13:06;2.17;;;0.70;;
65033;SDS011;51601;51.356;12.458;2023-02-01T16:17:51;1.02;;;0.65;;
65033;SDS011;51601;51.356;12.458;2023-02-01T16:22:35;1.27;;;0.73;;
65033;SDS011;51601;51.356;12.458;2023-02-01T16:27:21;1.13;;;0.70;;
65033;SDS011;51601;51.356;12.458;2023-02-01T16:32:10;3.03;;;1.10;;
65033;SDS011;51601;51.356;12.458;2023-02-01T16:36:59;4.03;;;0.90;;
65033;SDS011;51601;51.356;12.458;2023-02-01T16:41:44;2.00;;;0.70;;
65033;SDS011;51601;51.356;12.458;2023-02-01T16:46:32;1.50;;;0.77;;
65033;SDS011;51601;51.356;12.458;2023-02-01T16:51:19;2.15;;;0.90;;
65033;SDS011;51601;51.356;12.458;2023-02-01T16:56:07;1.67;;;0.70;;
65033;SDS011;51601;51.356;12.458;2023-02-01T17:00:56;2.60;;;0.70;;
65033;SDS011;51601;51.356;12.458;2023-02-01T17:05:42;2.83;;;0.93;;
65033;SDS011;51601;51.356;12.458;2023-02-01T17:10:29;4.03;;;0.90;;
65033;SDS011;51601;51.356;12.458;2023-02-01T17:15:15;2.85;;;0.80;;
65033;SDS011;51601;51.356;12.458;2023-02-01T17:20:00;1.50;;;0.70;;
65033;SDS011;51601;51.356;12.458;2023-02-01T17:24:46;1.90;;;0.90;;
65033;SDS011;51601;51.356;12.458;2023-02-01T17:29:30;2.25;;;0.95;;
65033;SDS011;51601;51.356;12.458;2023-02-01T17:34:15;1.50;;;0.70;;
65033;SDS011;51601;51.356;12.458;2023-02-01T17:39:00;4.72;;;1.13;;
65033;SDS011;51601;51.356;12.458;2023-02-01T17:43:49;5.73;;;1.10;;
65033;SDS011;51601;51.356;12.458;2023-02-01T17:48:34;4.97;;;1.33;;
65033;SDS011;51601;51.356;12.458;2023-02-01T17:53:18;5.05;;;1.38;;
65033;SDS011;51601;51.356;12.458;2023-02-01T17:58:05;4.83;;;1.40;;
65033;SDS011;51601;51.356;12.458;2023-02-01T18:02:51;4.75;;;1.00;;
65033;SDS011;51601;51.356;12.458;2023-02-01T18:07:35;1.20;;;0.70;;
65033;SDS011;51601;51.356;12.458;2023-02-01T18:12:20;1.87;;;0.93;;
65033;SDS011;51601;51.356;12.458;2023-02-01T18:17:07;2.25;;;0.85;;
65033;SDS011;51601;51.356;12.458;2023-02-01T18:21:52;2.22;;;0.88;;
65033;SDS011;51601;51.356;12.458;2023-02-01T18:26:39;2.75;;;0.90;;
65033;SDS011;51601;51.356;12.458;2023-02-01T18:31:24;2.80;;;0.97;;
65033;SDS011;51601;51.356;12.458;2023-02-01T18:36:10;3.00;;;0.90;;
65033;SDS011;51601;51.356;12.458;2023-02-01T18:40:57;2.92;;;0.82;;
65033;SDS011;51601;51.356;12.458;2023-02-01T18:45:43;2.60;;;1.00;;
65033;SDS011;51601;51.356;12.458;2023-02-01T18:50:28;2.78;;;0.90;;
65033;SDS011;51601;51.356;12.458;2023-02-01T18:55:14;3.75;;;1.23;;
65033;SDS011;51601;51.356;12.458;2023-02-01T19:00:00;4.97;;;1.23;;
65033;SDS011;51601;51.356;12.458;2023-02-01T19:04:45;3.03;;;1.05;;
65033;SDS011;51601;51.356;12.458;2023-02-01T19:09:29;4.60;;;1.15;;
65033;SDS011;51601;51.356;12.458;2023-02-01T19:14:13;2.15;;;1.00;;
65033;SDS011;51601;51.356;12.458;2023-02-01T19:18:59;4.10;;;1.10;;
65033;SDS011;51601;51.356;12.458;2023-02-01T19:23:43;3.00;;;1.15;;
65033;SDS011;51601;51.356;12.458;2023-02-01T19:28:27;9.32;;;1.10;;
65033;SDS011;51601;51.356;12.458;2023-02-01T19:33:11;2.87;;;1.20;;
65033;SDS011;51601;51.356;12.458;2023-02-01T19:37:57;4.07;;;1.20;;
65033;SDS011;51601;51.356;12.458;2023-02-01T19:42:42;2.55;;;1.00;;
65033;SDS011;51601;51.356;12.458;2023-02-01T19:47:26;5.17;;;1.37;;
65033;SDS011;51601;51.356;12.458;2023-02-01T19:52:10;3.22;;;1.00;;
65033;SDS011;51601;51.356;12.458;2023-02-01T19:56:56;8.27;;;1.50;;
65033;SDS011;51601;51.356;12.458;2023-02-01T20:01:40;4.93;;;1.48;;
65033;SDS011;51601;51.356;12.458;2023-02-01T20:06:26;3.37;;;1.00;;
65033;SDS011;51601;51.356;12.458;2023-02-01T20:11:11;3.28;;;1.10;;
65033;SDS011;51601;51.356;12.458;2023-02-01T20:15:57;5.68;;;1.20;;
65033;SDS011;51601;51.356;12.458;2023-02-01T20:20:41;2.67;;;1.00;;
65033;SDS011;51601;51.356;12.458;2023-02-01T20:25:25;3.42;;;0.98;;
65033;SDS011;51601;51.356;12.458;2023-02-01T20:30:10;2.35;;;1.08;;
65033;SDS011;51601;51.356;12.458;2023-02-01T20:34:56;6.90;;;1.87;;
65033;SDS011;51601;51.356;12.458;2023-02-01T20:39:40;6.32;;;1.58;;
65033;SDS011;51601;51.356;12.458;2023-02-01T20:44:24;5.43;;;1.52;;
65033;SDS011;51601;51.356;12.458;2023-02-01T20:49:09;4.05;;;1.35;;
65033;SDS011;51601;51.356;12.458;2023-02-01T20:53:54;4.30;;;1.30;;
65033;SDS011;51601;51.356;12.458;2023-02-01T20:58:39;3.60;;;1.10;;
65033;SDS011;51601;51.356;12.458;2023-02-01T21:03:24;2.25;;;0.90;;
65033;SDS011;51601;51.356;12.458;2023-02-01T21:08:09;3.30;;;1.20;;
65033;SDS011;51601;51.356;12.458;2023-02-01T21:12:49;5.72;;;1.85;;
65033;SDS011;51601;51.356;12.458;2023-02-01T21:17:46;3.78;;;1.23;;
65033;SDS011;51601;51.356;12.458;2023-02-01T21:22:30;4.90;;;1.30;;
65033;SDS011;51601;51.356;12.458;2023-02-01T21:27:14;3.13;;;1.08;;
65033;SDS011;51601;51.356;12.458;2023-02-01T21:32:00;5.28;;;1.35;;
65033;SDS011;51601;51.356;12.458;2023-02-01T21:36:44;3.35;;;1.08;;
65033;SDS011;51601;51.356;12.458;2023-02-01T21:41:29;6.10;;;1.57;;
65033;SDS011;51601;51.356;12.458;2023-02-01T21:46:31;3.90;;;1.10;;
65033;SDS011;51601;51.356;12.458;2023-02-01T21:51:17;8.55;;;1.65;;
65033;SDS011;51601;51.356;12.458;2023-02-01T21:56:02;4.10;;;1.47;;
65033;SDS011;51601;51.356;12.458;2023-02-01T22:00:47;2.42;;;1.00;;
65033;SDS011;51601;51.356;12.458;2023-02-01T22:05:31;2.40;;;1.00;;
65033;SDS011;51601;51.356;12.458;2023-02-01T22:10:16;2.87;;;1.10;;
65033;SDS011;51601;51.356;12.458;2023-02-01T22:15:01;5.95;;;1.10;;
65033;SDS011;51601;51.356;12.458;2023-02-01T22:19:45;4.70;;;1.23;;
65033;SDS011;51601;51.356;12.458;2023-02-01T22:24:29;2.13;;;0.82;;
65033;SDS011;51601;51.356;12.458;2023-02-01T22:29:15;4.53;;;1.10;;
65033;SDS011;51601;51.356;12.458;2023-02-01T22:34:00;4.78;;;1.27;;
65033;SDS011;51601;51.356;12.458;2023-02-01T22:38:45;5.18;;;1.30;;
65033;SDS011;51601;51.356;12.458;2023-02-01T22:43:29;8.33;;;1.43;;
65033;SDS011;51601;51.356;12.458;2023-02-01T22:48:16;5.75;;;1.15;;
65033;SDS011;51601;51.356;12.458;2023-02-01T22:53:00;6.35;;;1.67;;
65033;SDS011;51601;51.356;12.458;2023-02-01T22:57:48;6.93;;;1.20;;
65033;SDS011;51601;51.356;12.458;2023-02-01T23:02:32;3.70;;;1.25;;
65033;SDS011;51601;51.356;12.458;2023-02-01T23:07:20;4.40;;;1.50;;
65033;SDS011;51601;51.356;12.458;2023-02-01T23:12:04;9.85;;;1.52;;
65033;SDS011;51601;51.356;12.458;2023-02-01T23:16:48;8.73;;;1.63;;
65033;SDS011;51601;51.356;12.458;2023-02-01T23:21:32;10.10;;;1.65;;
65033;SDS011;51601;51.356;12.458;2023-02-01T23:26:18;3.80;;;1.17;;
65033;SDS011;51601;51.356;12.458;2023-02-01T23:31:07;4.27;;;1.60;;
65033;SDS011;51601;51.356;12.458;2023-02-01T23:35:54;8.75;;;1.30;;
65033;SDS011;51601;51.356;12.458;2023-02-01T23:40:39;7.35;;;1.67;;
65033;SDS011;51601;51.356;12.458;2023-02-01T23:45:24;4.63;;;1.60;;
65033;SDS011;51601;51.356;12.458;2023-02-01T23:50:09;5.88;;;1.42;;
65033;SDS011;51601;51.356;12.458;2023-02-01T23:54:50;2.50;;;1.08;;
65033;SDS011;51601;51.356;12.458;2023-02-01T23:59:15;4.75;;;1.33;;
